PWSweather.com
Personal Weather Stations
Station Observations
CARNOUSTIE
Pambride, CarnoustieGB DD7 6DY

PambrideCarnoustieGB DD7 6DY

Lat: 56.50889, Lon: -2.7051

Elevation: 105

Station Type: Oregon Scientific WMR200

www.carnoustieweather.co.uk

High Low Average
Temperature 45.9°F7.7°C 34.0°F1.1°C 38.8°F3.8°C
Dew Point 45.3°F7.4°C 33.5°F0.8°C 38.3°F3.5°C
Winds 1.2 mph 1.9 kmh Calm Calm Calm WSWCalm WSW
Wind Gusts 4.6 mph7.4 kmh -- --
Humidity 98% 96% 98%
Pressure 30.21 in1023.0 mb 29.80 in1009.1 mb -
Precipitation 0.02 in0.5 mm - -
Hour Temp Dew Point Humidity Winds Wind Gusts Pressure Precip Precip Rate Daily Precip Total
12:00 AM 37.6°F3.1°C 37.1°F2.8°C 98% Calm Calm -- 29.80 in1009.1 mb - 0.00 in0.0 mm 0.00 in0.0 mm
12:10 AM 37.6°F3.1°C 37.1°F2.8°C 98% Calm Calm -- 29.80 in1009.1 mb - 0.00 in0.0 mm 0.00 in0.0 mm
12:20 AM 37.8°F3.2°C 37.2°F2.9°C 98% Calm Calm -- 29.80 in1009.1 mb - 0.00 in0.0 mm 0.00 in0.0 mm
12:30 AM 37.9°F3.3°C 37.4°F3.0°C 98% Calm Calm -- 29.80 in1009.1 mb - 0.00 in0.0 mm 0.00 in0.0 mm
12:40 AM 38.0°F3.3°C 37.5°F3.1°C 98% Calm Calm -- 29.80 in1009.1 mb - 0.00 in0.0 mm 0.00 in0.0 mm
12:50 AM 38.4°F3.6°C 37.9°F3.3°C 98% Calm Calm -- 29.80 in1009.1 mb - 0.00 in0.0 mm 0.00 in0.0 mm
01:00 AM 38.8°F3.8°C 38.3°F3.5°C 98% Calm Calm -- 29.80 in1009.1 mb - 0.00 in0.0 mm 0.00 in0.0 mm
01:10 AM 39.0°F3.9°C 38.5°F3.6°C 98% Calm Calm -- 29.82 in1009.8 mb - 0.00 in0.0 mm 0.00 in0.0 mm
01:20 AM 39.2°F4.0°C 38.7°F3.7°C 98% Calm Calm -- 29.82 in1009.8 mb - 0.00 in0.0 mm 0.00 in0.0 mm
01:30 AM 39.0°F3.9°C 38.5°F3.6°C 98% Calm Calm -- 29.82 in1009.8 mb - 0.00 in0.0 mm 0.00 in0.0 mm
01:40 AM 38.8°F3.8°C 38.3°F3.5°C 98% Calm Calm -- 29.82 in1009.8 mb - 0.00 in0.0 mm 0.00 in0.0 mm
01:50 AM 38.8°F3.8°C 38.3°F3.5°C 98% Calm Calm -- 29.82 in1009.8 mb - 0.00 in0.0 mm 0.00 in0.0 mm
02:00 AM 38.8°F3.8°C 38.3°F3.5°C 98% Calm Calm -- 29.82 in1009.8 mb - 0.00 in0.0 mm 0.00 in0.0 mm
02:10 AM 38.7°F3.7°C 38.1°F3.4°C 98% Calm Calm -- 29.86 in1011.2 mb - 0.00 in0.0 mm 0.00 in0.0 mm
02:20 AM 38.7°F3.7°C 38.1°F3.4°C 98% Calm Calm -- 29.86 in1011.2 mb - 0.00 in0.0 mm 0.00 in0.0 mm
02:30 AM 38.5°F3.6°C 38.0°F3.3°C 98% Calm Calm -- 29.86 in1011.2 mb - 0.00 in0.0 mm 0.00 in0.0 mm
02:40 AM 38.5°F3.6°C 38.0°F3.3°C 98% Calm Calm -- 29.86 in1011.2 mb - 0.00 in0.0 mm 0.00 in0.0 mm
02:50 AM 38.3°F3.5°C 37.8°F3.2°C 98% Calm Calm -- 29.82 in1009.8 mb - 0.00 in0.0 mm 0.00 in0.0 mm
03:00 AM 38.3°F3.5°C 37.8°F3.2°C 98% Calm Calm -- 29.82 in1009.8 mb - 0.00 in0.0 mm 0.00 in0.0 mm
03:10 AM 38.1°F3.4°C 37.6°F3.1°C 98% Calm Calm -- 29.86 in1011.2 mb - 0.00 in0.0 mm 0.00 in0.0 mm
03:20 AM 37.9°F3.3°C 37.4°F3.0°C 98% Calm Calm -- 29.86 in1011.2 mb - 0.00 in0.0 mm 0.00 in0.0 mm
03:30 AM 37.6°F3.1°C 37.1°F2.8°C 98% Calm Calm -- 29.86 in1011.2 mb - 0.00 in0.0 mm 0.00 in0.0 mm
03:40 AM 37.6°F3.1°C 37.1°F2.8°C 98% Calm Calm -- 29.88 in1011.9 mb - 0.00 in0.0 mm 0.00 in0.0 mm
03:50 AM 37.4°F3.0°C 36.9°F2.7°C 98% Calm Calm -- 29.88 in1011.9 mb - 0.00 in0.0 mm 0.00 in0.0 mm
04:00 AM 37.2°F2.9°C 36.7°F2.6°C 98% Calm Calm -- 29.88 in1011.9 mb - 0.00 in0.0 mm 0.00 in0.0 mm
04:10 AM 37.6°F3.1°C 37.1°F2.8°C 98% Calm Calm 2.3 mph3.7 kmh 29.88 in1011.9 mb - 0.00 in0.0 mm 0.00 in0.0 mm
04:20 AM 37.8°F3.2°C 37.2°F2.9°C 98% Calm Calm -- 29.91 in1012.9 mb - 0.00 in0.0 mm 0.00 in0.0 mm
04:30 AM 37.6°F3.1°C 37.1°F2.8°C 98% Calm Calm -- 29.91 in1012.9 mb - 0.00 in0.0 mm 0.00 in0.0 mm
04:40 AM 38.1°F3.4°C 37.6°F3.1°C 98% Calm Calm 3.5 mph5.6 kmh 29.91 in1012.9 mb - 0.00 in0.0 mm 0.00 in0.0 mm
04:50 AM 38.5°F3.6°C 38.0°F3.3°C 98% Calm Calm -- 29.91 in1012.9 mb - 0.00 in0.0 mm 0.00 in0.0 mm
05:00 AM 38.5°F3.6°C 38.0°F3.3°C 98% Calm Calm -- 29.91 in1012.9 mb - 0.00 in0.0 mm 0.00 in0.0 mm
05:10 AM 38.1°F3.4°C 37.6°F3.1°C 98% Calm Calm -- 29.91 in1012.9 mb - 0.00 in0.0 mm 0.00 in0.0 mm
05:20 AM 37.8°F3.2°C 37.3°F2.9°C 98% Calm Calm -- 29.94 in1013.9 mb - 0.00 in0.0 mm 0.00 in0.0 mm
05:30 AM 37.8°F3.2°C 37.2°F2.9°C 98% Calm Calm -- 29.94 in1013.9 mb - 0.00 in0.0 mm 0.00 in0.0 mm
05:40 AM 37.8°F3.2°C 37.2°F2.9°C 98% Calm Calm -- 29.91 in1012.9 mb - 0.00 in0.0 mm 0.00 in0.0 mm
05:50 AM 38.7°F3.7°C 38.2°F3.4°C 98% 1.2 mph N1.9 kmh N 3.5 mph5.6 kmh 29.94 in1013.9 mb - 0.00 in0.0 mm 0.00 in0.0 mm
06:00 AM 39.2°F4.0°C 38.7°F3.7°C 98% Calm Calm -- 29.94 in1013.9 mb - 0.00 in0.0 mm 0.00 in0.0 mm
06:10 AM 38.8°F3.8°C 38.3°F3.5°C 98% Calm Calm -- 29.94 in1013.9 mb - 0.00 in0.0 mm 0.00 in0.0 mm
06:20 AM 39.2°F4.0°C 38.7°F3.7°C 98% Calm Calm -- 29.97 in1014.9 mb - 0.00 in0.0 mm 0.00 in0.0 mm
06:30 AM 39.6°F4.2°C 39.0°F3.9°C 98% 1.2 mph ENE1.9 kmh ENE 4.6 mph7.4 kmh 29.97 in1014.9 mb - 0.00 in0.0 mm 0.00 in0.0 mm
06:40 AM 39.6°F4.2°C 39.0°F3.9°C 98% Calm Calm -- 29.97 in1014.9 mb - 0.00 in0.0 mm 0.00 in0.0 mm
06:50 AM 39.7°F4.3°C 39.2°F4.0°C 98% 1.2 mph NNW1.9 kmh NNW -- 29.97 in1014.9 mb - 0.00 in0.0 mm 0.00 in0.0 mm
07:00 AM 40.1°F4.5°C 39.6°F4.2°C 98% Calm Calm -- 29.97 in1014.9 mb - 0.00 in0.0 mm 0.00 in0.0 mm
07:10 AM 39.9°F4.4°C 39.4°F4.1°C 98% Calm Calm -- 29.97 in1014.9 mb - 0.00 in0.0 mm 0.00 in0.0 mm
07:20 AM 39.7°F4.3°C 39.2°F4.0°C 98% Calm Calm -- 30.00 in1015.9 mb - 0.00 in0.0 mm 0.00 in0.0 mm
07:30 AM 39.7°F4.3°C 39.2°F4.0°C 98% Calm Calm -- 30.00 in1015.9 mb - 0.00 in0.0 mm 0.00 in0.0 mm
07:40 AM 39.7°F4.3°C 39.2°F4.0°C 98% Calm Calm -- 30.00 in1015.9 mb - 0.00 in0.0 mm 0.00 in0.0 mm
07:50 AM 39.4°F4.1°C 38.9°F3.8°C 98% Calm Calm -- 30.03 in1016.9 mb - 0.00 in0.0 mm 0.00 in0.0 mm
08:00 AM 39.2°F4.0°C 38.7°F3.7°C 98% Calm Calm -- 30.03 in1016.9 mb - 0.00 in0.0 mm 0.00 in0.0 mm
08:10 AM 39.6°F4.2°C 39.0°F3.9°C 98% Calm Calm -- 30.03 in1016.9 mb - 0.00 in0.0 mm 0.00 in0.0 mm
08:20 AM 39.7°F4.3°C 39.2°F4.0°C 98% Calm Calm -- 30.03 in1016.9 mb - 0.00 in0.0 mm 0.00 in0.0 mm
08:30 AM 39.6°F4.2°C 39.0°F3.9°C 98% Calm Calm -- 30.03 in1016.9 mb - 0.00 in0.0 mm 0.00 in0.0 mm
08:40 AM 39.4°F4.1°C 38.9°F3.8°C 98% Calm Calm -- 30.03 in1016.9 mb - 0.00 in0.0 mm 0.00 in0.0 mm
08:50 AM 39.4°F4.1°C 38.9°F3.8°C 98% Calm Calm -- 30.03 in1016.9 mb - 0.00 in0.0 mm 0.00 in0.0 mm
09:00 AM 39.4°F4.1°C 38.9°F3.8°C 98% Calm Calm -- 30.03 in1016.9 mb - 0.00 in0.0 mm 0.00 in0.0 mm
09:10 AM 39.2°F4.0°C 38.7°F3.7°C 98% Calm Calm -- 30.03 in1016.9 mb - 0.00 in0.0 mm 0.00 in0.0 mm
09:20 AM 39.2°F4.0°C 38.7°F3.7°C 98% Calm Calm -- 30.03 in1016.9 mb - 0.00 in0.0 mm 0.00 in0.0 mm
09:30 AM 38.8°F3.8°C 38.3°F3.5°C 98% Calm Calm -- 30.03 in1016.9 mb - 0.00 in0.0 mm 0.00 in0.0 mm
09:40 AM 38.5°F3.6°C 38.0°F3.3°C 98% Calm Calm -- 30.03 in1016.9 mb - 0.00 in0.0 mm 0.00 in0.0 mm
09:50 AM 38.1°F3.4°C 37.6°F3.1°C 98% Calm Calm -- 30.03 in1016.9 mb - 0.00 in0.0 mm 0.00 in0.0 mm
10:00 AM 37.9°F3.3°C 37.4°F3.0°C 98% Calm Calm -- 30.03 in1016.9 mb - 0.00 in0.0 mm 0.00 in0.0 mm
10:10 AM 38.8°F3.8°C 38.3°F3.5°C 98% Calm Calm -- 30.06 in1017.9 mb - 0.00 in0.0 mm 0.00 in0.0 mm
10:20 AM 40.1°F4.5°C 39.6°F4.2°C 98% Calm Calm -- 30.06 in1017.9 mb - 0.00 in0.0 mm 0.00 in0.0 mm
10:30 AM 40.6°F4.8°C 40.1°F4.5°C 98% Calm Calm -- 30.06 in1017.9 mb - 0.00 in0.0 mm 0.00 in0.0 mm
10:40 AM 41.2°F5.1°C 40.7°F4.8°C 98% Calm Calm -- 30.09 in1019.0 mb - 0.02 in0.5 mm 0.02 in0.5 mm
10:50 AM 41.2°F5.1°C 40.7°F4.8°C 98% Calm Calm -- 30.09 in1019.0 mb - 0.00 in0.0 mm 0.02 in0.5 mm
11:00 AM 41.5°F5.3°C 41.0°F5.0°C 98% Calm Calm -- 30.09 in1019.0 mb - 0.00 in0.0 mm 0.02 in0.5 mm
11:10 AM 42.1°F5.6°C 41.6°F5.3°C 98% Calm Calm -- 30.09 in1019.0 mb - 0.00 in0.0 mm 0.02 in0.5 mm
11:20 AM 42.3°F5.7°C 41.7°F5.4°C 98% Calm Calm -- 30.09 in1019.0 mb - 0.00 in0.0 mm 0.02 in0.5 mm
11:30 AM 42.6°F5.9°C 42.1°F5.6°C 98% Calm Calm -- 30.09 in1019.0 mb - 0.00 in0.0 mm 0.02 in0.5 mm
11:40 AM 43.3°F6.3°C 42.8°F6.0°C 98% Calm Calm -- 30.09 in1019.0 mb - 0.00 in0.0 mm 0.02 in0.5 mm
11:50 AM 43.7°F6.5°C 43.2°F6.2°C 98% Calm Calm -- 30.09 in1019.0 mb - 0.00 in0.0 mm 0.02 in0.5 mm
12:00 PM 44.1°F6.7°C 43.5°F6.4°C 98% Calm Calm -- 30.09 in1019.0 mb - 0.00 in0.0 mm 0.02 in0.5 mm
12:10 PM 44.7°F7.1°C 44.1°F6.7°C 98% Calm Calm -- 30.09 in1019.0 mb - 0.00 in0.0 mm 0.02 in0.5 mm
12:20 PM 45.1°F7.3°C 44.6°F7.0°C 98% Calm Calm -- 30.09 in1019.0 mb - 0.00 in0.0 mm 0.02 in0.5 mm
12:30 PM 45.6°F7.6°C 45.1°F7.3°C 98% Calm Calm -- 30.09 in1019.0 mb - 0.00 in0.0 mm 0.02 in0.5 mm
12:40 PM 45.9°F7.7°C 45.3°F7.4°C 98% Calm Calm -- 30.09 in1019.0 mb - 0.00 in0.0 mm 0.02 in0.5 mm
12:50 PM 45.5°F7.5°C 44.7°F7.1°C 97% Calm Calm -- 30.09 in1019.0 mb - 0.00 in0.0 mm 0.02 in0.5 mm
01:00 PM 45.0°F7.2°C 44.0°F6.7°C 96% Calm Calm -- 30.09 in1019.0 mb - 0.00 in0.0 mm 0.02 in0.5 mm
01:10 PM 44.6°F7.0°C 43.5°F6.4°C 96% Calm Calm 3.5 mph5.6 kmh 30.09 in1019.0 mb - 0.00 in0.0 mm 0.02 in0.5 mm
01:20 PM 44.4°F6.9°C 43.4°F6.3°C 96% Calm Calm -- 30.09 in1019.0 mb - 0.00 in0.0 mm 0.02 in0.5 mm
01:30 PM 44.2°F6.8°C 43.2°F6.2°C 96% 1.2 mph NNE1.9 kmh NNE 4.6 mph7.4 kmh 30.09 in1019.0 mb - 0.00 in0.0 mm 0.02 in0.5 mm
01:40 PM 44.2°F6.8°C 43.2°F6.2°C 96% 1.2 mph N1.9 kmh N 2.3 mph3.7 kmh 30.09 in1019.0 mb - 0.00 in0.0 mm 0.02 in0.5 mm
01:50 PM 44.0°F6.7°C 42.9°F6.1°C 96% 1.2 mph N1.9 kmh N 2.3 mph3.7 kmh 30.06 in1017.9 mb - 0.00 in0.0 mm 0.02 in0.5 mm
02:00 PM 43.5°F6.4°C 42.5°F5.8°C 96% 1.2 mph N1.9 kmh N 3.5 mph5.6 kmh 30.06 in1017.9 mb - 0.00 in0.0 mm 0.02 in0.5 mm
02:10 PM 43.0°F6.1°C 41.9°F5.5°C 96% 1.2 mph NW1.9 kmh NW 2.3 mph3.7 kmh 30.09 in1019.0 mb - 0.00 in0.0 mm 0.02 in0.5 mm
02:20 PM 42.4°F5.8°C 41.4°F5.2°C 96% Calm Calm -- 30.09 in1019.0 mb - 0.00 in0.0 mm 0.02 in0.5 mm
02:30 PM 41.9°F5.5°C 40.9°F4.9°C 96% Calm Calm -- 30.09 in1019.0 mb - 0.00 in0.0 mm 0.02 in0.5 mm
02:40 PM 41.5°F5.3°C 40.5°F4.7°C 96% Calm Calm -- 30.09 in1019.0 mb - 0.00 in0.0 mm 0.02 in0.5 mm
02:50 PM 41.0°F5.0°C 39.9°F4.4°C 96% Calm Calm -- 30.12 in1020.0 mb - 0.00 in0.0 mm 0.02 in0.5 mm
03:00 PM 40.5°F4.7°C 39.7°F4.3°C 97% Calm Calm -- 30.12 in1020.0 mb - 0.00 in0.0 mm 0.02 in0.5 mm
03:10 PM 40.3°F4.6°C 39.5°F4.2°C 97% Calm Calm -- 30.15 in1021.0 mb - 0.00 in0.0 mm 0.02 in0.5 mm
03:20 PM 40.1°F4.5°C 39.6°F4.2°C 98% Calm Calm -- 30.15 in1021.0 mb - 0.00 in0.0 mm 0.02 in0.5 mm
03:30 PM 40.5°F4.7°C 39.9°F4.4°C 98% 1.2 mph NW1.9 kmh NW 2.3 mph3.7 kmh 30.15 in1021.0 mb - 0.00 in0.0 mm 0.02 in0.5 mm
03:40 PM 41.0°F5.0°C 40.5°F4.7°C 98% Calm Calm 1.2 mph1.9 kmh 30.15 in1021.0 mb - 0.00 in0.0 mm 0.02 in0.5 mm
03:50 PM 41.5°F5.3°C 41.0°F5.0°C 98% Calm Calm -- 30.15 in1021.0 mb - 0.00 in0.0 mm 0.02 in0.5 mm
04:00 PM 41.5°F5.3°C 41.0°F5.0°C 98% Calm Calm 2.3 mph3.7 kmh 30.15 in1021.0 mb - 0.00 in0.0 mm 0.02 in0.5 mm
04:10 PM 41.2°F5.1°C 40.4°F4.7°C 97% Calm Calm -- 30.15 in1021.0 mb - 0.00 in0.0 mm 0.02 in0.5 mm
04:20 PM 40.6°F4.8°C 40.1°F4.5°C 98% Calm Calm 2.3 mph3.7 kmh 30.15 in1021.0 mb - 0.00 in0.0 mm 0.02 in0.5 mm
04:30 PM 40.6°F4.8°C 40.1°F4.5°C 98% Calm Calm -- 30.15 in1021.0 mb - 0.00 in0.0 mm 0.02 in0.5 mm
04:40 PM 40.3°F4.6°C 39.8°F4.3°C 98% Calm Calm 2.3 mph3.7 kmh 30.15 in1021.0 mb - 0.00 in0.0 mm 0.02 in0.5 mm
04:50 PM 39.9°F4.4°C 39.4°F4.1°C 98% Calm Calm 2.3 mph3.7 kmh 30.15 in1021.0 mb - 0.00 in0.0 mm 0.02 in0.5 mm
05:00 PM 39.7°F4.3°C 39.2°F4.0°C 98% Calm Calm -- 30.15 in1021.0 mb - 0.00 in0.0 mm 0.02 in0.5 mm
05:10 PM 39.6°F4.2°C 39.0°F3.9°C 98% Calm Calm -- 30.15 in1021.0 mb - 0.00 in0.0 mm 0.02 in0.5 mm
05:20 PM 39.4°F4.1°C 38.9°F3.8°C 98% Calm Calm -- 30.18 in1022.0 mb - 0.00 in0.0 mm 0.02 in0.5 mm
05:30 PM 39.0°F3.9°C 38.5°F3.6°C 98% Calm Calm 1.2 mph1.9 kmh 30.18 in1022.0 mb - 0.00 in0.0 mm 0.02 in0.5 mm
05:40 PM 38.8°F3.8°C 38.3°F3.5°C 98% Calm Calm 2.3 mph3.7 kmh 30.18 in1022.0 mb - 0.00 in0.0 mm 0.02 in0.5 mm
05:50 PM 38.5°F3.6°C 38.0°F3.3°C 98% Calm Calm -- 30.15 in1021.0 mb - 0.00 in0.0 mm 0.02 in0.5 mm
06:00 PM 37.9°F3.3°C 37.4°F3.0°C 98% Calm Calm 1.2 mph1.9 kmh 30.15 in1021.0 mb - 0.00 in0.0 mm 0.02 in0.5 mm
06:10 PM 37.8°F3.2°C 37.2°F2.9°C 98% Calm Calm 4.6 mph7.4 kmh 30.15 in1021.0 mb - 0.00 in0.0 mm 0.02 in0.5 mm
06:20 PM 37.4°F3.0°C 36.9°F2.7°C 98% 1.2 mph NW1.9 kmh NW 2.3 mph3.7 kmh 30.18 in1022.0 mb - 0.00 in0.0 mm 0.02 in0.5 mm
06:30 PM 37.4°F3.0°C 36.9°F2.7°C 98% Calm Calm 3.5 mph5.6 kmh 30.18 in1022.0 mb - 0.00 in0.0 mm 0.02 in0.5 mm
06:40 PM 37.0°F2.8°C 36.5°F2.5°C 98% Calm Calm -- 30.18 in1022.0 mb - 0.00 in0.0 mm 0.02 in0.5 mm
06:50 PM 36.9°F2.7°C 36.3°F2.4°C 98% Calm Calm -- 30.15 in1021.0 mb - 0.00 in0.0 mm 0.02 in0.5 mm
07:00 PM 36.6°F2.6°C 36.1°F2.3°C 98% Calm Calm -- 30.15 in1021.0 mb - 0.00 in0.0 mm 0.02 in0.5 mm
07:10 PM 35.9°F2.2°C 35.4°F1.9°C 98% Calm Calm -- 30.18 in1022.0 mb - 0.00 in0.0 mm 0.02 in0.5 mm
07:20 PM 35.1°F1.7°C 34.6°F1.4°C 98% Calm Calm -- 30.18 in1022.0 mb - 0.00 in0.0 mm 0.02 in0.5 mm
07:30 PM 34.7°F1.5°C 34.2°F1.2°C 98% Calm Calm -- 30.18 in1022.0 mb - 0.00 in0.0 mm 0.02 in0.5 mm
07:40 PM 34.5°F1.4°C 34.0°F1.1°C 98% Calm Calm -- 30.18 in1022.0 mb - 0.00 in0.0 mm 0.02 in0.5 mm
07:50 PM 34.3°F1.3°C 33.8°F1.0°C 98% Calm Calm -- 30.21 in1023.0 mb - 0.00 in0.0 mm 0.02 in0.5 mm
08:00 PM 34.5°F1.4°C 34.0°F1.1°C 98% 1.2 mph WNW1.9 kmh WNW -- 30.21 in1023.0 mb - 0.00 in0.0 mm 0.02 in0.5 mm
08:10 PM 34.9°F1.6°C 34.4°F1.3°C 98% Calm Calm -- 30.21 in1023.0 mb - 0.00 in0.0 mm 0.02 in0.5 mm
08:20 PM 34.7°F1.5°C 34.2°F1.2°C 98% Calm Calm -- 30.21 in1023.0 mb - 0.00 in0.0 mm 0.02 in0.5 mm
08:30 PM 35.1°F1.7°C 34.6°F1.4°C 98% Calm Calm -- 30.21 in1023.0 mb - 0.00 in0.0 mm 0.02 in0.5 mm
08:40 PM 35.1°F1.7°C 34.6°F1.4°C 98% Calm Calm -- 30.21 in1023.0 mb - 0.00 in0.0 mm 0.02 in0.5 mm
08:50 PM 34.9°F1.6°C 34.4°F1.3°C 98% Calm Calm -- 30.21 in1023.0 mb - 0.00 in0.0 mm 0.02 in0.5 mm
09:00 PM 34.7°F1.5°C 34.2°F1.2°C 98% Calm Calm -- 30.21 in1023.0 mb - 0.00 in0.0 mm 0.02 in0.5 mm
09:10 PM 34.3°F1.3°C 33.8°F1.0°C 98% Calm Calm -- 30.21 in1023.0 mb - 0.00 in0.0 mm 0.02 in0.5 mm
09:20 PM 34.5°F1.4°C 34.0°F1.1°C 98% Calm Calm -- 30.21 in1023.0 mb - 0.00 in0.0 mm 0.02 in0.5 mm
09:30 PM 34.7°F1.5°C 34.2°F1.2°C 98% Calm Calm -- 30.21 in1023.0 mb - 0.00 in0.0 mm 0.02 in0.5 mm
09:40 PM 34.7°F1.5°C 34.2°F1.2°C 98% Calm Calm -- 30.21 in1023.0 mb - 0.00 in0.0 mm 0.02 in0.5 mm
09:50 PM 34.5°F1.4°C 34.0°F1.1°C 98% Calm Calm -- 30.21 in1023.0 mb - 0.00 in0.0 mm 0.02 in0.5 mm
10:00 PM 34.3°F1.3°C 33.8°F1.0°C 98% Calm Calm -- 30.21 in1023.0 mb - 0.00 in0.0 mm 0.02 in0.5 mm
10:10 PM 34.0°F1.1°C 33.5°F0.8°C 98% Calm Calm -- 30.21 in1023.0 mb - 0.00 in0.0 mm 0.02 in0.5 mm
10:20 PM 34.0°F1.1°C 33.5°F0.8°C 98% Calm Calm -- 30.21 in1023.0 mb - 0.00 in0.0 mm 0.02 in0.5 mm
10:30 PM 34.5°F1.4°C 34.0°F1.1°C 98% Calm Calm -- 30.21 in1023.0 mb - 0.00 in0.0 mm 0.02 in0.5 mm
10:40 PM 34.7°F1.5°C 34.2°F1.2°C 98% Calm Calm -- 30.21 in1023.0 mb - 0.00 in0.0 mm 0.02 in0.5 mm
10:50 PM 34.5°F1.4°C 34.0°F1.1°C 98% Calm Calm -- 30.21 in1023.0 mb - 0.00 in0.0 mm 0.02 in0.5 mm
11:00 PM 34.3°F1.3°C 33.8°F1.0°C 98% Calm Calm -- 30.21 in1023.0 mb - 0.00 in0.0 mm 0.02 in0.5 mm
11:10 PM 34.2°F1.2°C 33.7°F0.9°C 98% Calm Calm -- 30.21 in1023.0 mb - 0.00 in0.0 mm 0.02 in0.5 mm
11:20 PM 34.0°F1.1°C 33.5°F0.8°C 98% Calm Calm -- 30.21 in1023.0 mb - 0.00 in0.0 mm 0.02 in0.5 mm
11:30 PM 34.2°F1.2°C 33.7°F0.9°C 98% Calm Calm -- 30.21 in1023.0 mb - 0.00 in0.0 mm 0.02 in0.5 mm
11:40 PM 34.5°F1.4°C 34.0°F1.1°C 98% Calm Calm -- 30.18 in1022.0 mb - 0.00 in0.0 mm 0.02 in0.5 mm
11:50 PM 34.9°F1.6°C 34.4°F1.3°C 98% Calm Calm -- 30.21 in1023.0 mb - 0.00 in0.0 mm 0.02 in0.5 mm